sensor_id;sensor_type;location;lat;lon;timestamp;pressure;altitude;pressure_sealevel;temperature;humidity
38400;BME280;24180;42.676;23.320;2023-05-10T00:00:50;94952.84;;;9.12;100.00
38400;BME280;24180;42.676;23.320;2023-05-10T00:03:16;94952.56;;;9.15;100.00
38400;BME280;24180;42.676;23.320;2023-05-10T00:05:41;94951.72;;;9.05;100.00
38400;BME280;24180;42.676;23.320;2023-05-10T00:08:06;94943.03;;;9.06;100.00
38400;BME280;24180;42.676;23.320;2023-05-10T00:10:32;94945.47;;;9.08;100.00
38400;BME280;24180;42.676;23.320;2023-05-10T00:12:57;94925.28;;;8.92;100.00
38400;BME280;24180;42.676;23.320;2023-05-10T00:15:23;94920.66;;;8.96;100.00
38400;BME280;24180;42.676;23.320;2023-05-10T00:17:48;94948.88;;;9.08;100.00
38400;BME280;24180;42.676;23.320;2023-05-10T00:20:14;94941.13;;;9.08;100.00
38400;BME280;24180;42.676;23.320;2023-05-10T00:22:39;94926.66;;;8.96;100.00
38400;BME280;24180;42.676;23.320;2023-05-10T00:25:05;94930.34;;;8.93;100.00
38400;BME280;24180;42.676;23.320;2023-05-10T00:27:31;94944.19;;;8.92;100.00
38400;BME280;24180;42.676;23.320;2023-05-10T00:29:56;94933.94;;;8.81;100.00
38400;BME280;24180;42.676;23.320;2023-05-10T00:32:22;94945.28;;;8.90;100.00
38400;BME280;24180;42.676;23.320;2023-05-10T00:34:47;94949.06;;;8.86;100.00
38400;BME280;24180;42.676;23.320;2023-05-10T00:37:13;94915.81;;;8.72;100.00
38400;BME280;24180;42.676;23.320;2023-05-10T00:39:38;94938.56;;;8.87;100.00
38400;BME280;24180;42.676;23.320;2023-05-10T00:42:03;94939.66;;;8.85;100.00
38400;BME280;24180;42.676;23.320;2023-05-10T00:44:29;94907.88;;;8.64;100.00
38400;BME280;24180;42.676;23.320;2023-05-10T00:46:56;94903.16;;;8.69;100.00
38400;BME280;24180;42.676;23.320;2023-05-10T00:49:21;94904.53;;;8.73;100.00
38400;BME280;24180;42.676;23.320;2023-05-10T00:51:47;94932.03;;;8.83;100.00
38400;BME280;24180;42.676;23.320;2023-05-10T00:54:14;94926.03;;;8.83;100.00
38400;BME280;24180;42.676;23.320;2023-05-10T00:56:40;94926.63;;;8.86;100.00
38400;BME280;24180;42.676;23.320;2023-05-10T00:59:07;94938.72;;;8.86;100.00
38400;BME280;24180;42.676;23.320;2023-05-10T01:01:33;94905.47;;;8.72;100.00
38400;BME280;24180;42.676;23.320;2023-05-10T01:03:58;94903.53;;;8.64;100.00
38400;BME280;24180;42.676;23.320;2023-05-10T01:06:24;94917.34;;;8.74;100.00
38400;BME280;24180;42.676;23.320;2023-05-10T01:08:50;94895.50;;;8.58;100.00
38400;BME280;24180;42.676;23.320;2023-05-10T01:11:15;94920.28;;;8.70;100.00
38400;BME280;24180;42.676;23.320;2023-05-10T01:13:43;94913.94;;;8.74;100.00
38400;BME280;24180;42.676;23.320;2023-05-10T01:16:10;94870.72;;;8.45;100.00
38400;BME280;24180;42.676;23.320;2023-05-10T01:18:40;94913.09;;;8.73;100.00
38400;BME280;24180;42.676;23.320;2023-05-10T01:23:59;94896.44;;;8.57;100.00
38400;BME280;24180;42.676;23.320;2023-05-10T01:32:40;94915.94;;;8.70;100.00
38400;BME280;24180;42.676;23.320;2023-05-10T01:40:26;94906.00;;;8.66;100.00
38400;BME280;24180;42.676;23.320;2023-05-10T01:43:01;94892.94;;;8.58;100.00
38400;BME280;24180;42.676;23.320;2023-05-10T01:45:32;94859.78;;;8.32;100.00
38400;BME280;24180;42.676;23.320;2023-05-10T01:48:07;94885.22;;;8.46;100.00
38400;BME280;24180;42.676;23.320;2023-05-10T01:50:36;94838.06;;;8.14;100.00
38400;BME280;24180;42.676;23.320;2023-05-10T01:53:02;94865.81;;;8.22;100.00
38400;BME280;24180;42.676;23.320;2023-05-10T01:55:32;94893.50;;;8.40;100.00
38400;BME280;24180;42.676;23.320;2023-05-10T01:58:09;94891.19;;;8.37;100.00
38400;BME280;24180;42.676;23.320;2023-05-10T02:00:40;94850.81;;;7.95;100.00
38400;BME280;24180;42.676;23.320;2023-05-10T02:03:08;94888.47;;;8.18;100.00
38400;BME280;24180;42.676;23.320;2023-05-10T02:05:36;94902.16;;;8.19;100.00
38400;BME280;24180;42.676;23.320;2023-05-10T02:08:05;94898.06;;;8.16;100.00
38400;BME280;24180;42.676;23.320;2023-05-10T02:10:32;94889.88;;;8.11;100.00
38400;BME280;24180;42.676;23.320;2023-05-10T02:12:59;94901.16;;;8.10;100.00
38400;BME280;24180;42.676;23.320;2023-05-10T02:15:26;94897.88;;;8.08;100.00
38400;BME280;24180;42.676;23.320;2023-05-10T02:17:54;94862.13;;;7.83;100.00
38400;BME280;24180;42.676;23.320;2023-05-10T02:20:20;94894.28;;;7.99;100.00
38400;BME280;24180;42.676;23.320;2023-05-10T02:22:49;94891.44;;;7.82;100.00
38400;BME280;24180;42.676;23.320;2023-05-10T02:25:18;94902.47;;;7.73;100.00
38400;BME280;24180;42.676;23.320;2023-05-10T02:27:44;94910.97;;;7.52;100.00
38400;BME280;24180;42.676;23.320;2023-05-10T02:30:10;94892.84;;;7.43;100.00
38400;BME280;24180;42.676;23.320;2023-05-10T02:32:37;94884.47;;;7.19;100.00
38400;BME280;24180;42.676;23.320;2023-05-10T02:35:03;94877.09;;;7.14;100.00
38400;BME280;24180;42.676;23.320;2023-05-10T02:37:29;94898.16;;;7.19;100.00
38400;BME280;24180;42.676;23.320;2023-05-10T02:39:56;94867.91;;;6.89;100.00
38400;BME280;24180;42.676;23.320;2023-05-10T02:42:29;94899.81;;;7.20;100.00
38400;BME280;24180;42.676;23.320;2023-05-10T02:45:10;94876.56;;;6.88;100.00
38400;BME280;24180;42.676;23.320;2023-05-10T02:47:36;94909.66;;;7.04;100.00
38400;BME280;24180;42.676;23.320;2023-05-10T02:50:02;94891.88;;;6.90;100.00
38400;BME280;24180;42.676;23.320;2023-05-10T02:52:36;94877.59;;;6.75;100.00
38400;BME280;24180;42.676;23.320;2023-05-10T02:55:05;94883.22;;;6.91;100.00
38400;BME280;24180;42.676;23.320;2023-05-10T02:57:34;94907.31;;;7.01;100.00
38400;BME280;24180;42.676;23.320;2023-05-10T03:00:00;94899.25;;;7.05;100.00
38400;BME280;24180;42.676;23.320;2023-05-10T03:02:26;94908.34;;;6.98;100.00
38400;BME280;24180;42.676;23.320;2023-05-10T03:04:52;94912.34;;;7.02;100.00
38400;BME280;24180;42.676;23.320;2023-05-10T03:07:18;94921.59;;;7.05;100.00
38400;BME280;24180;42.676;23.320;2023-05-10T03:09:47;94884.63;;;6.84;100.00
38400;BME280;24180;42.676;23.320;2023-05-10T03:15:25;94927.91;;;7.12;100.00
38400;BME280;24180;42.676;23.320;2023-05-10T03:18:16;94924.66;;;7.10;100.00
38400;BME280;24180;42.676;23.320;2023-05-10T03:20:49;94907.78;;;7.06;100.00
38400;BME280;24180;42.676;23.320;2023-05-10T03:23:37;94923.44;;;7.14;100.00
38400;BME280;24180;42.676;23.320;2023-05-10T03:26:05;94929.06;;;7.19;100.00
38400;BME280;24180;42.676;23.320;2023-05-10T03:28:34;94934.09;;;7.21;100.00
38400;BME280;24180;42.676;23.320;2023-05-10T03:30:59;94943.69;;;7.30;100.00
38400;BME280;24180;42.676;23.320;2023-05-10T03:33:25;94921.81;;;7.13;100.00
38400;BME280;24180;42.676;23.320;2023-05-10T03:35:51;94903.81;;;7.13;100.00
38400;BME280;24180;42.676;23.320;2023-05-10T03:38:16;94892.34;;;7.06;100.00
38400;BME280;24180;42.676;23.320;2023-05-10T03:40:41;94918.50;;;7.22;100.00
38400;BME280;24180;42.676;23.320;2023-05-10T03:43:07;94943.19;;;7.47;100.00
38400;BME280;24180;42.676;23.320;2023-05-10T03:45:32;94937.91;;;7.48;100.00
38400;BME280;24180;42.676;23.320;2023-05-10T03:47:58;94914.88;;;7.36;100.00
38400;BME280;24180;42.676;23.320;2023-05-10T03:50:24;94953.50;;;7.58;100.00
38400;BME280;24180;42.676;23.320;2023-05-10T03:52:49;94951.91;;;7.67;100.00
38400;BME280;24180;42.676;23.320;2023-05-10T03:55:15;94922.94;;;7.53;100.00
38400;BME280;24180;42.676;23.320;2023-05-10T03:57:41;94956.72;;;7.71;100.00
38400;BME280;24180;42.676;23.320;2023-05-10T04:00:07;94955.78;;;7.72;100.00
38400;BME280;24180;42.676;23.320;2023-05-10T04:02:33;94967.69;;;7.84;100.00
38400;BME280;24180;42.676;23.320;2023-05-10T04:04:59;94938.56;;;7.73;100.00
38400;BME280;24180;42.676;23.320;2023-05-10T04:07:24;94962.19;;;7.89;100.00
38400;BME280;24180;42.676;23.320;2023-05-10T04:09:49;94972.72;;;7.97;100.00
38400;BME280;24180;42.676;23.320;2023-05-10T04:12:15;94963.06;;;7.99;100.00
38400;BME280;24180;42.676;23.320;2023-05-10T04:14:40;94964.00;;;8.09;100.00
38400;BME280;24180;42.676;23.320;2023-05-10T04:17:06;94962.72;;;8.04;100.00
38400;BME280;24180;42.676;23.320;2023-05-10T04:19:31;94943.41;;;7.98;100.00
38400;BME280;24180;42.676;23.320;2023-05-10T04:21:57;94980.72;;;8.15;100.00
38400;BME280;24180;42.676;23.320;2023-05-10T04:24:23;94961.47;;;8.19;100.00
38400;BME280;24180;42.676;23.320;2023-05-10T04:26:48;94972.88;;;8.16;100.00
38400;BME280;24180;42.676;23.320;2023-05-10T04:29:14;94985.03;;;8.25;100.00
38400;BME280;24180;42.676;23.320;2023-05-10T04:31:39;94970.91;;;8.09;100.00
38400;BME280;24180;42.676;23.320;2023-05-10T04:34:05;94946.09;;;7.96;100.00
38400;BME280;24180;42.676;23.320;2023-05-10T04:36:30;94965.78;;;7.97;100.00
38400;BME280;24180;42.676;23.320;2023-05-10T04:38:57;94988.13;;;8.08;100.00
38400;BME280;24180;42.676;23.320;2023-05-10T04:41:23;94959.44;;;8.02;100.00
38400;BME280;24180;42.676;23.320;2023-05-10T04:43:48;94964.91;;;8.08;100.00
38400;BME280;24180;42.676;23.320;2023-05-10T04:46:14;94981.38;;;8.28;100.00
38400;BME280;24180;42.676;23.320;2023-05-10T04:48:40;94985.75;;;8.16;100.00
38400;BME280;24180;42.676;23.320;2023-05-10T04:51:05;94960.69;;;8.18;100.00
38400;BME280;24180;42.676;23.320;2023-05-10T04:53:31;94970.75;;;8.21;100.00
38400;BME280;24180;42.676;23.320;2023-05-10T04:55:57;94978.72;;;8.29;100.00
38400;BME280;24180;42.676;23.320;2023-05-10T04:58:22;94974.13;;;8.33;100.00
38400;BME280;24180;42.676;23.320;2023-05-10T05:00:48;94970.28;;;8.48;100.00
38400;BME280;24180;42.676;23.320;2023-05-10T05:03:13;94964.19;;;8.49;100.00
38400;BME280;24180;42.676;23.320;2023-05-10T05:05:39;94976.00;;;8.52;100.00
38400;BME280;24180;42.676;23.320;2023-05-10T05:08:04;94953.97;;;8.48;100.00
38400;BME280;24180;42.676;23.320;2023-05-10T05:10:30;94966.38;;;8.54;100.00
38400;BME280;24180;42.676;23.320;2023-05-10T05:12:55;94982.00;;;8.73;100.00
38400;BME280;24180;42.676;23.320;2023-05-10T05:15:21;94988.84;;;8.83;100.00
38400;BME280;24180;42.676;23.320;2023-05-10T05:17:46;94974.44;;;8.81;100.00
38400;BME280;24180;42.676;23.320;2023-05-10T05:20:12;94968.50;;;8.90;100.00
38400;BME280;24180;42.676;23.320;2023-05-10T05:22:38;94963.34;;;8.90;100.00
38400;BME280;24180;42.676;23.320;2023-05-10T05:25:04;94976.28;;;9.00;100.00
38400;BME280;24180;42.676;23.320;2023-05-10T05:27:31;94967.66;;;9.10;100.00
38400;BME280;24180;42.676;23.320;2023-05-10T05:29:57;94992.84;;;9.18;100.00
38400;BME280;24180;42.676;23.320;2023-05-10T05:32:23;95000.28;;;9.11;100.00
38400;BME280;24180;42.676;23.320;2023-05-10T05:34:49;95007.78;;;9.14;100.00
38400;BME280;24180;42.676;23.320;2023-05-10T05:37:15;94999.03;;;9.06;100.00
38400;BME280;24180;42.676;23.320;2023-05-10T05:39:41;94982.66;;;8.96;100.00
38400;BME280;24180;42.676;23.320;2023-05-10T05:42:11;94975.63;;;8.77;100.00
38400;BME280;24180;42.676;23.320;2023-05-10T05:44:37;95014.84;;;8.91;100.00
38400;BME280;24180;42.676;23.320;2023-05-10T05:47:02;94978.41;;;8.85;100.00
38400;BME280;24180;42.676;23.320;2023-05-10T05:49:28;94997.09;;;8.98;100.00
38400;BME280;24180;42.676;23.320;2023-05-10T05:51:54;95000.72;;;8.96;100.00
38400;BME280;24180;42.676;23.320;2023-05-10T05:54:19;95007.66;;;8.95;100.00
38400;BME280;24180;42.676;23.320;2023-05-10T05:56:45;94990.50;;;8.64;100.00
38400;BME280;24180;42.676;23.320;2023-05-10T05:59:11;95017.63;;;8.79;100.00
38400;BME280;24180;42.676;23.320;2023-05-10T06:01:36;94995.38;;;8.67;100.00
38400;BME280;24180;42.676;23.320;2023-05-10T06:04:02;95016.75;;;8.69;100.00
38400;BME280;24180;42.676;23.320;2023-05-10T06:06:28;94980.72;;;8.46;100.00
38400;BME280;24180;42.676;23.320;2023-05-10T06:08:53;95006.16;;;8.72;100.00
38400;BME280;24180;42.676;23.320;2023-05-10T06:11:18;95000.13;;;8.82;100.00
38400;BME280;24180;42.676;23.320;2023-05-10T06:13:45;94986.25;;;8.83;100.00
38400;BME280;24180;42.676;23.320;2023-05-10T06:16:11;95015.00;;;8.90;100.00
38400;BME280;24180;42.676;23.320;2023-05-10T06:18:36;95008.81;;;9.02;100.00
38400;BME280;24180;42.676;23.320;2023-05-10T06:21:02;95003.88;;;8.99;100.00
38400;BME280;24180;42.676;23.320;2023-05-10T06:23:27;94994.81;;;9.05;100.00
38400;BME280;24180;42.676;23.320;2023-05-10T06:25:52;94982.28;;;9.00;100.00
38400;BME280;24180;42.676;23.320;2023-05-10T06:28:18;95002.78;;;9.22;100.00
38400;BME280;24180;42.676;23.320;2023-05-10T06:30:43;95026.56;;;9.47;100.00
38400;BME280;24180;42.676;23.320;2023-05-10T06:33:09;95024.03;;;9.35;100.00
38400;BME280;24180;42.676;23.320;2023-05-10T06:35:35;95024.84;;;9.26;100.00
38400;BME280;24180;42.676;23.320;2023-05-10T06:38:02;95026.00;;;9.13;100.00
38400;BME280;24180;42.676;23.320;2023-05-10T06:40:27;95029.88;;;9.28;100.00
38400;BME280;24180;42.676;23.320;2023-05-10T06:42:52;95006.88;;;9.25;100.00
38400;BME280;24180;42.676;23.320;2023-05-10T06:45:18;95030.94;;;9.56;100.00
38400;BME280;24180;42.676;23.320;2023-05-10T06:47:43;95016.97;;;9.68;100.00
38400;BME280;24180;42.676;23.320;2023-05-10T06:50:09;95009.78;;;9.81;100.00
38400;BME280;24180;42.676;23.320;2023-05-10T06:52:36;95030.38;;;9.92;100.00
38400;BME280;24180;42.676;23.320;2023-05-10T06:55:03;95038.56;;;9.97;100.00
38400;BME280;24180;42.676;23.320;2023-05-10T06:57:29;95039.22;;;9.99;100.00
38400;BME280;24180;42.676;23.320;2023-05-10T06:59:55;95009.81;;;9.91;100.00
38400;BME280;24180;42.676;23.320;2023-05-10T07:02:21;95012.13;;;9.94;100.00
38400;BME280;24180;42.676;23.320;2023-05-10T07:04:47;95027.25;;;9.98;100.00
38400;BME280;24180;42.676;23.320;2023-05-10T07:07:13;95022.44;;;9.84;100.00
38400;BME280;24180;42.676;23.320;2023-05-10T07:09:39;95049.41;;;9.81;100.00
38400;BME280;24180;42.676;23.320;2023-05-10T07:12:04;95035.72;;;9.60;100.00
38400;BME280;24180;42.676;23.320;2023-05-10T07:14:30;95057.81;;;9.74;100.00
38400;BME280;24180;42.676;23.320;2023-05-10T07:16:55;95061.25;;;9.84;100.00
38400;BME280;24180;42.676;23.320;2023-05-10T07:19:20;95059.34;;;9.86;100.00
38400;BME280;24180;42.676;23.320;2023-05-10T07:21:46;95030.31;;;9.73;100.00
38400;BME280;24180;42.676;23.320;2023-05-10T07:24:12;95030.03;;;9.76;100.00
38400;BME280;24180;42.676;23.320;2023-05-10T07:26:38;95045.72;;;9.74;100.00
38400;BME280;24180;42.676;23.320;2023-05-10T07:29:03;95027.84;;;9.62;100.00
38400;BME280;24180;42.676;23.320;2023-05-10T07:31:28;95061.41;;;9.82;100.00
38400;BME280;24180;42.676;23.320;2023-05-10T07:33:54;95059.19;;;9.78;100.00
38400;BME280;24180;42.676;23.320;2023-05-10T07:36:19;95042.41;;;9.63;100.00
38400;BME280;24180;42.676;23.320;2023-05-10T07:38:45;95042.97;;;9.76;100.00
38400;BME280;24180;42.676;23.320;2023-05-10T07:41:13;95069.47;;;10.08;100.00
38400;BME280;24180;42.676;23.320;2023-05-10T07:43:38;95051.59;;;9.86;100.00
38400;BME280;24180;42.676;23.320;2023-05-10T07:46:05;95036.31;;;9.83;100.00
38400;BME280;24180;42.676;23.320;2023-05-10T07:48:30;95045.38;;;9.98;100.00
38400;BME280;24180;42.676;23.320;2023-05-10T07:50:56;95067.78;;;10.28;100.00
38400;BME280;24180;42.676;23.320;2023-05-10T07:53:21;95066.16;;;10.56;100.00
38400;BME280;24180;42.676;23.320;2023-05-10T07:55:51;95081.72;;;10.75;100.00
38400;BME280;24180;42.676;23.320;2023-05-10T07:58:17;95068.34;;;10.60;100.00
38400;BME280;24180;42.676;23.320;2023-05-10T08:00:42;95068.34;;;10.41;100.00
38400;BME280;24180;42.676;23.320;2023-05-10T08:03:07;95068.75;;;10.27;100.00
38400;BME280;24180;42.676;23.320;2023-05-10T08:05:33;95062.84;;;10.15;100.00
38400;BME280;24180;42.676;23.320;2023-05-10T08:07:59;95072.84;;;10.29;100.00
38400;BME280;24180;42.676;23.320;2023-05-10T08:10:24;95078.44;;;10.54;100.00
38400;BME280;24180;42.676;23.320;2023-05-10T08:12:50;95054.47;;;10.61;100.00
38400;BME280;24180;42.676;23.320;2023-05-10T08:15:16;95078.44;;;10.63;100.00
38400;BME280;24180;42.676;23.320;2023-05-10T08:17:41;95054.84;;;10.47;100.00
38400;BME280;24180;42.676;23.320;2023-05-10T08:20:08;95081.44;;;10.88;100.00
38400;BME280;24180;42.676;23.320;2023-05-10T08:22:33;95074.34;;;10.90;100.00
38400;BME280;24180;42.676;23.320;2023-05-10T08:24:59;95087.44;;;10.88;100.00
38400;BME280;24180;42.676;23.320;2023-05-10T08:27:24;95052.81;;;10.79;100.00
38400;BME280;24180;42.676;23.320;2023-05-10T08:29:50;95065.22;;;10.95;100.00
38400;BME280;24180;42.676;23.320;2023-05-10T08:32:15;95081.19;;;10.81;100.00
38400;BME280;24180;42.676;23.320;2023-05-10T08:34:41;95089.88;;;10.80;100.00
38400;BME280;24180;42.676;23.320;2023-05-10T08:37:06;95069.16;;;10.80;100.00
38400;BME280;24180;42.676;23.320;2023-05-10T08:39:35;95068.59;;;11.05;100.00
38400;BME280;24180;42.676;23.320;2023-05-10T08:42:03;95074.88;;;11.12;100.00
38400;BME280;24180;42.676;23.320;2023-05-10T08:44:31;95054.72;;;10.97;100.00
38400;BME280;24180;42.676;23.320;2023-05-10T08:46:59;95038.09;;;10.70;100.00
38400;BME280;24180;42.676;23.320;2023-05-10T08:49:31;95056.47;;;10.96;100.00
38400;BME280;24180;42.676;23.320;2023-05-10T08:51:57;95054.97;;;11.03;100.00
38400;BME280;24180;42.676;23.320;2023-05-10T08:54:25;95047.47;;;11.00;100.00
38400;BME280;24180;42.676;23.320;2023-05-10T08:56:52;95059.47;;;11.11;100.00
38400;BME280;24180;42.676;23.320;2023-05-10T08:59:18;95073.47;;;11.27;100.00
38400;BME280;24180;42.676;23.320;2023-05-10T09:01:44;95047.88;;;11.15;100.00
38400;BME280;24180;42.676;23.320;2023-05-10T09:04:10;95078.09;;;11.34;100.00
38400;BME280;24180;42.676;23.320;2023-05-10T09:06:37;95073.75;;;11.34;100.00
38400;BME280;24180;42.676;23.320;2023-05-10T09:09:02;95056.31;;;11.17;100.00
38400;BME280;24180;42.676;23.320;2023-05-10T09:11:28;95078.56;;;11.10;100.00
38400;BME280;24180;42.676;23.320;2023-05-10T09:13:55;95079.75;;;11.15;100.00
38400;BME280;24180;42.676;23.320;2023-05-10T09:16:21;95068.59;;;11.15;100.00
38400;BME280;24180;42.676;23.320;2023-05-10T09:18:47;95078.69;;;11.18;100.00
38400;BME280;24180;42.676;23.320;2023-05-10T09:21:13;95070.63;;;11.31;100.00
38400;BME280;24180;42.676;23.320;2023-05-10T09:23:42;95069.09;;;11.38;100.00
38400;BME280;24180;42.676;23.320;2023-05-10T09:26:08;95049.34;;;11.27;100.00
38400;BME280;24180;42.676;23.320;2023-05-10T09:28:34;95060.31;;;11.48;100.00
38400;BME280;24180;42.676;23.320;2023-05-10T09:31:15;95045.75;;;11.47;100.00
38400;BME280;24180;42.676;23.320;2023-05-10T09:33:44;95048.34;;;11.47;100.00
38400;BME280;24180;42.676;23.320;2023-05-10T09:36:10;95069.47;;;11.89;100.00
38400;BME280;24180;42.676;23.320;2023-05-10T09:38:48;95048.41;;;11.92;100.00
38400;BME280;24180;42.676;23.320;2023-05-10T09:41:18;95041.63;;;11.91;100.00
38400;BME280;24180;42.676;23.320;2023-05-10T09:43:44;95056.69;;;11.78;100.00
38400;BME280;24180;42.676;23.320;2023-05-10T09:46:09;95065.06;;;11.99;100.00
38400;BME280;24180;42.676;23.320;2023-05-10T09:48:42;95078.81;;;12.09;100.00
38400;BME280;24180;42.676;23.320;2023-05-10T09:51:08;95063.72;;;11.95;100.00
38400;BME280;24180;42.676;23.320;2023-05-10T09:53:33;95065.56;;;11.76;100.00
38400;BME280;24180;42.676;23.320;2023-05-10T09:55:58;95071.06;;;12.00;100.00
38400;BME280;24180;42.676;23.320;2023-05-10T09:58:24;95032.53;;;11.68;100.00
38400;BME280;24180;42.676;23.320;2023-05-10T10:00:50;95043.44;;;11.81;100.00
38400;BME280;24180;42.676;23.320;2023-05-10T10:03:20;95068.22;;;12.20;100.00
38400;BME280;24180;42.676;23.320;2023-05-10T10:05:47;95026.09;;;12.27;100.00
38400;BME280;24180;42.676;23.320;2023-05-10T10:08:13;95057.22;;;12.54;100.00
38400;BME280;24180;42.676;23.320;2023-05-10T10:10:40;95048.28;;;12.56;100.00
38400;BME280;24180;42.676;23.320;2023-05-10T10:13:06;95019.50;;;12.68;100.00
38400;BME280;24180;42.676;23.320;2023-05-10T10:15:33;95018.31;;;12.80;100.00
38400;BME280;24180;42.676;23.320;2023-05-10T10:17:59;95012.88;;;12.73;100.00
38400;BME280;24180;42.676;23.320;2023-05-10T10:20:26;95027.06;;;12.79;100.00
38400;BME280;24180;42.676;23.320;2023-05-10T10:22:51;95032.00;;;13.07;100.00
38400;BME280;24180;42.676;23.320;2023-05-10T10:25:18;95020.28;;;12.86;100.00
38400;BME280;24180;42.676;23.320;2023-05-10T10:30:42;95042.06;;;12.67;100.00
38400;BME280;24180;42.676;23.320;2023-05-10T10:35:40;95028.59;;;12.89;100.00
38400;BME280;24180;42.676;23.320;2023-05-10T10:38:08;95045.72;;;13.00;100.00
38400;BME280;24180;42.676;23.320;2023-05-10T10:40:34;95048.88;;;13.03;100.00
38400;BME280;24180;42.676;23.320;2023-05-10T10:43:25;95042.41;;;13.07;100.00
38400;BME280;24180;42.676;23.320;2023-05-10T10:46:11;95051.88;;;12.91;100.00
38400;BME280;24180;42.676;23.320;2023-05-10T10:48:47;95042.22;;;12.83;100.00
38400;BME280;24180;42.676;23.320;2023-05-10T10:51:13;95033.88;;;12.97;100.00
38400;BME280;24180;42.676;23.320;2023-05-10T10:53:40;95022.19;;;13.01;100.00
38400;BME280;24180;42.676;23.320;2023-05-10T10:56:10;95036.59;;;13.31;100.00
38400;BME280;24180;42.676;23.320;2023-05-10T10:58:38;95048.78;;;13.31;100.00
38400;BME280;24180;42.676;23.320;2023-05-10T11:01:19;95027.66;;;13.34;100.00
38400;BME280;24180;42.676;23.320;2023-05-10T11:06:29;95042.44;;;13.33;100.00
38400;BME280;24180;42.676;23.320;2023-05-10T11:08:56;95020.09;;;13.23;100.00
38400;BME280;24180;42.676;23.320;2023-05-10T11:11:22;95032.91;;;13.42;100.00
38400;BME280;24180;42.676;23.320;2023-05-10T11:13:48;95037.56;;;13.56;100.00
38400;BME280;24180;42.676;23.320;2023-05-10T11:16:18;95019.34;;;13.64;100.00
38400;BME280;24180;42.676;23.320;2023-05-10T11:21:24;95052.31;;;13.89;100.00
38400;BME280;24180;42.676;23.320;2023-05-10T11:23:54;95036.75;;;13.97;100.00
38400;BME280;24180;42.676;23.320;2023-05-10T11:26:30;95042.78;;;14.06;100.00
38400;BME280;24180;42.676;23.320;2023-05-10T11:28:56;95057.03;;;14.28;100.00
38400;BME280;24180;42.676;23.320;2023-05-10T11:31:22;95048.06;;;14.22;100.00
38400;BME280;24180;42.676;23.320;2023-05-10T11:33:53;95030.59;;;14.06;100.00
38400;BME280;24180;42.676;23.320;2023-05-10T11:36:51;95053.25;;;13.80;100.00
38400;BME280;24180;42.676;23.320;2023-05-10T11:39:16;95035.50;;;13.68;100.00
38400;BME280;24180;42.676;23.320;2023-05-10T11:41:42;95045.41;;;13.72;100.00
38400;BME280;24180;42.676;23.320;2023-05-10T11:44:08;95038.59;;;13.45;100.00
38400;BME280;24180;42.676;23.320;2023-05-10T11:46:36;95041.88;;;13.47;100.00
38400;BME280;24180;42.676;23.320;2023-05-10T11:49:02;95042.91;;;13.54;100.00
38400;BME280;24180;42.676;23.320;2023-05-10T11:51:29;95036.91;;;13.36;100.00
38400;BME280;24180;42.676;23.320;2023-05-10T11:53:58;95041.63;;;13.33;100.00
38400;BME280;24180;42.676;23.320;2023-05-10T11:56:23;95023.75;;;13.12;100.00
38400;BME280;24180;42.676;23.320;2023-05-10T11:58:56;95044.16;;;13.25;100.00
38400;BME280;24180;42.676;23.320;2023-05-10T12:01:24;95034.81;;;13.32;100.00
38400;BME280;24180;42.676;23.320;2023-05-10T12:03:50;95021.59;;;13.07;100.00
38400;BME280;24180;42.676;23.320;2023-05-10T12:06:18;95016.50;;;12.80;100.00
38400;BME280;24180;42.676;23.320;2023-05-10T12:08:48;95040.91;;;13.23;100.00
38400;BME280;24180;42.676;23.320;2023-05-10T12:11:17;95032.75;;;13.43;100.00
38400;BME280;24180;42.676;23.320;2023-05-10T12:13:44;95033.13;;;13.56;100.00
38400;BME280;24180;42.676;23.320;2023-05-10T12:16:17;95029.66;;;13.74;100.00
38400;BME280;24180;42.676;23.320;2023-05-10T12:18:43;94997.66;;;13.47;100.00
38400;BME280;24180;42.676;23.320;2023-05-10T12:21:10;95024.34;;;13.24;100.00
38400;BME280;24180;42.676;23.320;2023-05-10T12:23:37;95037.84;;;13.27;100.00
38400;BME280;24180;42.676;23.320;2023-05-10T12:26:04;95002.97;;;13.12;100.00
38400;BME280;24180;42.676;23.320;2023-05-10T12:28:31;95017.88;;;13.28;100.00
38400;BME280;24180;42.676;23.320;2023-05-10T12:30:58;95019.06;;;13.41;100.00
38400;BME280;24180;42.676;23.320;2023-05-10T12:33:24;95010.75;;;13.38;100.00
38400;BME280;24180;42.676;23.320;2023-05-10T12:35:51;94993.88;;;12.73;100.00
38400;BME280;24180;42.676;23.320;2023-05-10T12:38:34;94989.94;;;12.86;100.00
38400;BME280;24180;42.676;23.320;2023-05-10T12:41:02;95021.06;;;13.22;100.00
38400;BME280;24180;42.676;23.320;2023-05-10T12:43:28;94980.66;;;13.27;100.00
38400;BME280;24180;42.676;23.320;2023-05-10T12:45:53;94984.72;;;13.30;100.00
38400;BME280;24180;42.676;23.320;2023-05-10T12:48:19;94977.25;;;13.09;100.00
38400;BME280;24180;42.676;23.320;2023-05-10T12:50:45;95004.97;;;13.18;100.00
38400;BME280;24180;42.676;23.320;2023-05-10T12:53:11;94989.22;;;13.20;100.00
38400;BME280;24180;42.676;23.320;2023-05-10T12:55:36;94998.56;;;13.12;100.00
38400;BME280;24180;42.676;23.320;2023-05-10T12:58:02;95009.41;;;13.26;100.00
38400;BME280;24180;42.676;23.320;2023-05-10T13:00:27;95010.41;;;13.33;100.00
38400;BME280;24180;42.676;23.320;2023-05-10T13:02:53;95004.91;;;13.10;100.00
38400;BME280;24180;42.676;23.320;2023-05-10T13:05:18;94979.09;;;12.91;100.00
38400;BME280;24180;42.676;23.320;2023-05-10T13:07:44;94992.66;;;13.02;100.00
38400;BME280;24180;42.676;23.320;2023-05-10T13:10:09;94964.34;;;12.56;100.00
38400;BME280;24180;42.676;23.320;2023-05-10T13:12:35;94989.25;;;12.84;100.00